Assateague Island Natl Seashore, Maryland
Current Conditions -  °F | °C
As of 2:53 PM on Sunday 25 Jan 2015 (Local Time) from KOXB Reporting Station
Scattered Clouds Scattered Clouds  
Wind Chill: 47°   Ceiling: Unl
Heat Index: 49°   Visibility: 10mi
Dew Point: 31°   Wind: 6mph
Humidity: 50%   Direction: 250°WSW
Pressure: 29.85"   Gusts: NA
Location:  38.12°N, 75.19°W
Report Text: KOXB 251953Z AUTO 25005KT 10SM SCT046 09/M01 A2985 RMK AO2 SLP106 T00941006 TSNO
Loading
Personal Weather Stations






























Interactive Weather Map New forecast layout! Learn more

10-Day Weather Forecast

Advertisements
Track Severe Weather on mobile